sensor_id;sensor_type;location;lat;lon;timestamp;P1;durP1;ratioP1;P2;durP2;ratioP2
75814;SDS011;70031;45.570;14.228;2023-06-14T00:00:22;5.32;;;2.50;;
75814;SDS011;70031;45.570;14.228;2023-06-14T00:02:22;4.72;;;2.53;;
75814;SDS011;70031;45.570;14.228;2023-06-14T00:04:22;5.28;;;2.88;;
75814;SDS011;70031;45.570;14.228;2023-06-14T00:06:25;5.28;;;2.45;;
75814;SDS011;70031;45.570;14.228;2023-06-14T00:08:25;4.82;;;2.63;;
75814;SDS011;70031;45.570;14.228;2023-06-14T00:10:26;8.30;;;2.65;;
75814;SDS011;70031;45.570;14.228;2023-06-14T00:12:30;8.98;;;2.75;;
75814;SDS011;70031;45.570;14.228;2023-06-14T00:14:31;5.93;;;2.55;;
75814;SDS011;70031;45.570;14.228;2023-06-14T00:16:32;7.97;;;2.90;;
75814;SDS011;70031;45.570;14.228;2023-06-14T00:18:35;5.80;;;2.72;;
75814;SDS011;70031;45.570;14.228;2023-06-14T00:20:35;7.10;;;2.90;;
75814;SDS011;70031;45.570;14.228;2023-06-14T00:22:36;7.20;;;2.55;;
75814;SDS011;70031;45.570;14.228;2023-06-14T00:24:37;5.28;;;2.72;;
75814;SDS011;70031;45.570;14.228;2023-06-14T00:26:37;6.88;;;2.17;;
75814;SDS011;70031;45.570;14.228;2023-06-14T00:28:37;5.72;;;2.30;;
75814;SDS011;70031;45.570;14.228;2023-06-14T00:30:38;5.15;;;2.22;;
75814;SDS011;70031;45.570;14.228;2023-06-14T00:32:39;5.05;;;2.85;;
75814;SDS011;70031;45.570;14.228;2023-06-14T00:34:40;7.32;;;2.75;;
75814;SDS011;70031;45.570;14.228;2023-06-14T00:36:40;5.05;;;2.50;;
75814;SDS011;70031;45.570;14.228;2023-06-14T00:38:40;4.15;;;2.53;;
75814;SDS011;70031;45.570;14.228;2023-06-14T00:40:41;6.63;;;3.08;;
75814;SDS011;70031;45.570;14.228;2023-06-14T00:42:41;12.43;;;2.75;;
75814;SDS011;70031;45.570;14.228;2023-06-14T00:44:42;6.18;;;2.80;;
75814;SDS011;70031;45.570;14.228;2023-06-14T00:46:42;5.18;;;2.63;;
75814;SDS011;70031;45.570;14.228;2023-06-14T00:48:43;3.58;;;2.40;;
75814;SDS011;70031;45.570;14.228;2023-06-14T00:50:45;4.45;;;2.28;;
75814;SDS011;70031;45.570;14.228;2023-06-14T00:52:49;4.68;;;2.60;;
75814;SDS011;70031;45.570;14.228;2023-06-14T00:54:50;5.32;;;2.92;;
75814;SDS011;70031;45.570;14.228;2023-06-14T00:56:51;6.22;;;2.63;;
75814;SDS011;70031;45.570;14.228;2023-06-14T00:58:51;5.30;;;2.50;;
75814;SDS011;70031;45.570;14.228;2023-06-14T01:00:51;9.05;;;2.65;;
75814;SDS011;70031;45.570;14.228;2023-06-14T01:02:52;4.70;;;2.45;;
75814;SDS011;70031;45.570;14.228;2023-06-14T01:04:53;5.70;;;2.42;;
75814;SDS011;70031;45.570;14.228;2023-06-14T01:06:57;2.70;;;1.77;;
75814;SDS011;70031;45.570;14.228;2023-06-14T01:09:10;3.47;;;2.05;;
75814;SDS011;70031;45.570;14.228;2023-06-14T01:11:21;3.50;;;2.15;;
75814;SDS011;70031;45.570;14.228;2023-06-14T01:13:32;6.10;;;2.22;;
75814;SDS011;70031;45.570;14.228;2023-06-14T01:15:35;6.60;;;2.08;;
75814;SDS011;70031;45.570;14.228;2023-06-14T01:17:37;4.93;;;2.22;;
75814;SDS011;70031;45.570;14.228;2023-06-14T01:19:44;3.08;;;1.95;;
75814;SDS011;70031;45.570;14.228;2023-06-14T01:21:45;3.83;;;1.80;;
75814;SDS011;70031;45.570;14.228;2023-06-14T01:23:46;4.05;;;2.30;;
75814;SDS011;70031;45.570;14.228;2023-06-14T01:25:52;4.95;;;2.20;;
75814;SDS011;70031;45.570;14.228;2023-06-14T01:27:53;6.10;;;2.50;;
75814;SDS011;70031;45.570;14.228;2023-06-14T01:29:58;4.72;;;2.08;;
75814;SDS011;70031;45.570;14.228;2023-06-14T01:32:02;4.20;;;2.08;;
75814;SDS011;70031;45.570;14.228;2023-06-14T01:34:03;4.40;;;2.42;;
75814;SDS011;70031;45.570;14.228;2023-06-14T01:36:04;4.60;;;2.33;;
75814;SDS011;70031;45.570;14.228;2023-06-14T01:38:07;4.65;;;2.28;;
75814;SDS011;70031;45.570;14.228;2023-06-14T01:40:08;4.38;;;2.20;;
75814;SDS011;70031;45.570;14.228;2023-06-14T01:44:13;4.63;;;2.10;;
75814;SDS011;70031;45.570;14.228;2023-06-14T01:46:15;3.75;;;1.77;;
75814;SDS011;70031;45.570;14.228;2023-06-14T01:48:16;3.38;;;2.00;;
75814;SDS011;70031;45.570;14.228;2023-06-14T01:50:18;3.08;;;1.83;;
75814;SDS011;70031;45.570;14.228;2023-06-14T01:52:20;5.18;;;2.20;;
75814;SDS011;70031;45.570;14.228;2023-06-14T01:54:22;4.82;;;2.28;;
75814;SDS011;70031;45.570;14.228;2023-06-14T01:56:22;4.47;;;2.00;;
75814;SDS011;70031;45.570;14.228;2023-06-14T01:58:23;3.80;;;2.00;;
75814;SDS011;70031;45.570;14.228;2023-06-14T02:00:24;5.20;;;2.45;;
75814;SDS011;70031;45.570;14.228;2023-06-14T02:02:24;6.65;;;2.63;;
75814;SDS011;70031;45.570;14.228;2023-06-14T02:04:24;6.68;;;2.50;;
75814;SDS011;70031;45.570;14.228;2023-06-14T02:06:26;8.05;;;2.90;;
75814;SDS011;70031;45.570;14.228;2023-06-14T02:08:27;5.68;;;2.53;;
75814;SDS011;70031;45.570;14.228;2023-06-14T02:10:28;4.20;;;2.40;;
75814;SDS011;70031;45.570;14.228;2023-06-14T02:12:28;5.18;;;2.75;;
75814;SDS011;70031;45.570;14.228;2023-06-14T02:14:28;4.45;;;2.08;;
75814;SDS011;70031;45.570;14.228;2023-06-14T02:16:29;5.05;;;2.15;;
75814;SDS011;70031;45.570;14.228;2023-06-14T02:18:29;7.93;;;2.47;;
75814;SDS011;70031;45.570;14.228;2023-06-14T02:20:29;5.82;;;2.55;;
75814;SDS011;70031;45.570;14.228;2023-06-14T02:22:30;6.20;;;2.72;;
75814;SDS011;70031;45.570;14.228;2023-06-14T02:24:31;6.65;;;2.90;;
75814;SDS011;70031;45.570;14.228;2023-06-14T02:26:31;7.00;;;2.85;;
75814;SDS011;70031;45.570;14.228;2023-06-14T02:28:32;10.48;;;2.60;;
75814;SDS011;70031;45.570;14.228;2023-06-14T02:30:32;11.73;;;2.90;;
75814;SDS011;70031;45.570;14.228;2023-06-14T02:32:32;9.68;;;2.53;;
75814;SDS011;70031;45.570;14.228;2023-06-14T02:34:35;6.57;;;2.90;;
75814;SDS011;70031;45.570;14.228;2023-06-14T02:36:35;7.20;;;3.05;;
75814;SDS011;70031;45.570;14.228;2023-06-14T02:38:41;5.15;;;2.78;;
75814;SDS011;70031;45.570;14.228;2023-06-14T02:40:42;7.30;;;2.50;;
75814;SDS011;70031;45.570;14.228;2023-06-14T02:42:42;5.47;;;2.85;;
75814;SDS011;70031;45.570;14.228;2023-06-14T02:44:42;7.18;;;3.10;;
75814;SDS011;70031;45.570;14.228;2023-06-14T02:46:43;7.10;;;2.80;;
75814;SDS011;70031;45.570;14.228;2023-06-14T02:48:43;7.90;;;2.60;;
75814;SDS011;70031;45.570;14.228;2023-06-14T02:50:45;9.90;;;3.13;;
75814;SDS011;70031;45.570;14.228;2023-06-14T02:52:45;8.05;;;2.67;;
75814;SDS011;70031;45.570;14.228;2023-06-14T02:54:46;6.43;;;2.80;;
75814;SDS011;70031;45.570;14.228;2023-06-14T02:56:47;5.10;;;2.88;;
75814;SDS011;70031;45.570;14.228;2023-06-14T02:58:47;5.35;;;2.78;;
75814;SDS011;70031;45.570;14.228;2023-06-14T03:00:48;5.10;;;2.70;;
75814;SDS011;70031;45.570;14.228;2023-06-14T03:02:49;9.23;;;3.28;;
75814;SDS011;70031;45.570;14.228;2023-06-14T03:04:51;6.65;;;2.60;;
75814;SDS011;70031;45.570;14.228;2023-06-14T03:06:52;5.60;;;2.60;;
75814;SDS011;70031;45.570;14.228;2023-06-14T03:08:53;4.27;;;2.07;;
75814;SDS011;70031;45.570;14.228;2023-06-14T03:10:54;5.13;;;2.72;;
75814;SDS011;70031;45.570;14.228;2023-06-14T03:12:56;9.43;;;3.08;;
75814;SDS011;70031;45.570;14.228;2023-06-14T03:14:56;5.55;;;2.67;;
75814;SDS011;70031;45.570;14.228;2023-06-14T03:16:56;4.55;;;2.53;;
75814;SDS011;70031;45.570;14.228;2023-06-14T03:18:57;6.63;;;2.67;;
75814;SDS011;70031;45.570;14.228;2023-06-14T03:20:57;7.63;;;3.13;;
75814;SDS011;70031;45.570;14.228;2023-06-14T03:23:01;13.77;;;4.03;;
75814;SDS011;70031;45.570;14.228;2023-06-14T03:25:03;8.32;;;3.83;;
75814;SDS011;70031;45.570;14.228;2023-06-14T03:27:04;6.60;;;3.53;;
75814;SDS011;70031;45.570;14.228;2023-06-14T03:29:05;6.20;;;2.95;;
75814;SDS011;70031;45.570;14.228;2023-06-14T03:31:05;6.30;;;3.30;;
75814;SDS011;70031;45.570;14.228;2023-06-14T03:33:06;11.07;;;3.38;;
75814;SDS011;70031;45.570;14.228;2023-06-14T03:35:06;6.45;;;2.83;;
75814;SDS011;70031;45.570;14.228;2023-06-14T03:37:07;8.35;;;4.28;;
75814;SDS011;70031;45.570;14.228;2023-06-14T03:39:08;7.35;;;3.20;;
75814;SDS011;70031;45.570;14.228;2023-06-14T03:41:08;17.00;;;3.20;;
75814;SDS011;70031;45.570;14.228;2023-06-14T03:43:09;13.35;;;3.40;;
75814;SDS011;70031;45.570;14.228;2023-06-14T03:45:09;14.68;;;5.70;;
75814;SDS011;70031;45.570;14.228;2023-06-14T03:47:10;16.70;;;3.53;;
75814;SDS011;70031;45.570;14.228;2023-06-14T03:49:10;25.48;;;10.38;;
75814;SDS011;70031;45.570;14.228;2023-06-14T03:51:11;27.02;;;4.88;;
75814;SDS011;70031;45.570;14.228;2023-06-14T03:53:12;8.07;;;3.47;;
75814;SDS011;70031;45.570;14.228;2023-06-14T03:55:12;11.32;;;2.95;;
75814;SDS011;70031;45.570;14.228;2023-06-14T03:57:16;12.88;;;3.47;;
75814;SDS011;70031;45.570;14.228;2023-06-14T03:59:16;18.75;;;3.20;;
75814;SDS011;70031;45.570;14.228;2023-06-14T04:01:16;14.38;;;3.17;;
75814;SDS011;70031;45.570;14.228;2023-06-14T04:03:17;15.38;;;3.50;;
75814;SDS011;70031;45.570;14.228;2023-06-14T04:05:19;13.70;;;3.25;;
75814;SDS011;70031;45.570;14.228;2023-06-14T04:07:25;16.05;;;3.55;;
75814;SDS011;70031;45.570;14.228;2023-06-14T04:09:29;14.85;;;3.30;;
75814;SDS011;70031;45.570;14.228;2023-06-14T04:11:30;10.13;;;3.35;;
75814;SDS011;70031;45.570;14.228;2023-06-14T04:13:31;18.48;;;3.17;;
75814;SDS011;70031;45.570;14.228;2023-06-14T04:15:32;17.67;;;3.60;;
75814;SDS011;70031;45.570;14.228;2023-06-14T04:17:32;14.55;;;3.83;;
75814;SDS011;70031;45.570;14.228;2023-06-14T04:19:33;7.22;;;3.67;;
75814;SDS011;70031;45.570;14.228;2023-06-14T04:21:33;11.77;;;3.70;;
75814;SDS011;70031;45.570;14.228;2023-06-14T04:23:34;9.00;;;4.03;;
75814;SDS011;70031;45.570;14.228;2023-06-14T04:25:35;14.98;;;3.83;;
75814;SDS011;70031;45.570;14.228;2023-06-14T04:27:36;25.05;;;4.35;;
75814;SDS011;70031;45.570;14.228;2023-06-14T04:29:37;14.23;;;4.15;;
75814;SDS011;70031;45.570;14.228;2023-06-14T04:31:39;14.50;;;4.13;;
75814;SDS011;70031;45.570;14.228;2023-06-14T04:33:39;12.73;;;3.97;;
75814;SDS011;70031;45.570;14.228;2023-06-14T04:35:42;8.13;;;4.18;;
75814;SDS011;70031;45.570;14.228;2023-06-14T04:37:47;10.05;;;4.95;;
75814;SDS011;70031;45.570;14.228;2023-06-14T04:39:48;13.88;;;4.65;;
75814;SDS011;70031;45.570;14.228;2023-06-14T04:41:48;7.63;;;3.50;;
75814;SDS011;70031;45.570;14.228;2023-06-14T04:43:52;17.15;;;3.63;;
75814;SDS011;70031;45.570;14.228;2023-06-14T04:45:53;8.48;;;3.28;;
75814;SDS011;70031;45.570;14.228;2023-06-14T04:47:57;15.40;;;3.90;;
75814;SDS011;70031;45.570;14.228;2023-06-14T04:49:59;17.58;;;4.38;;
75814;SDS011;70031;45.570;14.228;2023-06-14T04:52:00;38.97;;;5.00;;
75814;SDS011;70031;45.570;14.228;2023-06-14T04:54:01;28.55;;;4.18;;
75814;SDS011;70031;45.570;14.228;2023-06-14T04:56:03;28.90;;;4.75;;
75814;SDS011;70031;45.570;14.228;2023-06-14T04:58:04;18.08;;;4.78;;
75814;SDS011;70031;45.570;14.228;2023-06-14T05:00:05;61.97;;;6.25;;
75814;SDS011;70031;45.570;14.228;2023-06-14T05:02:06;43.38;;;6.35;;
75814;SDS011;70031;45.570;14.228;2023-06-14T05:04:07;53.78;;;5.43;;
75814;SDS011;70031;45.570;14.228;2023-06-14T05:06:07;37.90;;;6.40;;
75814;SDS011;70031;45.570;14.228;2023-06-14T05:08:07;48.33;;;6.90;;
75814;SDS011;70031;45.570;14.228;2023-06-14T05:10:09;14.30;;;6.70;;
75814;SDS011;70031;45.570;14.228;2023-06-14T05:12:10;11.63;;;6.80;;
75814;SDS011;70031;45.570;14.228;2023-06-14T05:14:10;13.25;;;7.82;;
75814;SDS011;70031;45.570;14.228;2023-06-14T05:16:11;13.45;;;7.65;;
75814;SDS011;70031;45.570;14.228;2023-06-14T05:18:12;14.05;;;8.48;;
75814;SDS011;70031;45.570;14.228;2023-06-14T05:20:13;14.15;;;7.65;;
75814;SDS011;70031;45.570;14.228;2023-06-14T05:22:13;18.33;;;9.68;;
75814;SDS011;70031;45.570;14.228;2023-06-14T05:24:14;15.18;;;9.52;;
75814;SDS011;70031;45.570;14.228;2023-06-14T05:26:15;14.57;;;9.25;;
75814;SDS011;70031;45.570;14.228;2023-06-14T05:28:15;15.98;;;8.48;;
75814;SDS011;70031;45.570;14.228;2023-06-14T05:30:16;14.48;;;9.05;;
75814;SDS011;70031;45.570;14.228;2023-06-14T05:32:16;15.98;;;9.38;;
75814;SDS011;70031;45.570;14.228;2023-06-14T05:34:17;17.80;;;9.73;;
75814;SDS011;70031;45.570;14.228;2023-06-14T05:36:17;13.40;;;8.75;;
75814;SDS011;70031;45.570;14.228;2023-06-14T05:38:18;14.38;;;7.93;;
75814;SDS011;70031;45.570;14.228;2023-06-14T05:40:18;13.95;;;8.10;;
75814;SDS011;70031;45.570;14.228;2023-06-14T05:42:19;12.02;;;7.45;;
75814;SDS011;70031;45.570;14.228;2023-06-14T05:44:19;15.50;;;8.25;;
75814;SDS011;70031;45.570;14.228;2023-06-14T05:46:19;13.77;;;7.65;;
75814;SDS011;70031;45.570;14.228;2023-06-14T05:48:22;11.95;;;7.10;;
75814;SDS011;70031;45.570;14.228;2023-06-14T05:50:22;15.77;;;5.75;;
75814;SDS011;70031;45.570;14.228;2023-06-14T05:52:22;9.70;;;5.88;;
75814;SDS011;70031;45.570;14.228;2023-06-14T05:54:23;9.52;;;5.57;;
75814;SDS011;70031;45.570;14.228;2023-06-14T05:56:23;8.13;;;5.35;;
75814;SDS011;70031;45.570;14.228;2023-06-14T05:58:24;10.50;;;5.50;;
75814;SDS011;70031;45.570;14.228;2023-06-14T06:00:24;8.40;;;5.10;;
75814;SDS011;70031;45.570;14.228;2023-06-14T06:02:25;9.35;;;5.20;;
75814;SDS011;70031;45.570;14.228;2023-06-14T06:04:25;7.95;;;5.13;;
75814;SDS011;70031;45.570;14.228;2023-06-14T06:06:26;10.30;;;4.65;;
75814;SDS011;70031;45.570;14.228;2023-06-14T06:08:26;8.90;;;4.88;;
75814;SDS011;70031;45.570;14.228;2023-06-14T06:10:27;7.35;;;4.90;;
75814;SDS011;70031;45.570;14.228;2023-06-14T06:12:27;7.35;;;4.38;;
75814;SDS011;70031;45.570;14.228;2023-06-14T06:14:28;7.05;;;4.35;;
75814;SDS011;70031;45.570;14.228;2023-06-14T06:16:28;9.43;;;5.05;;
75814;SDS011;70031;45.570;14.228;2023-06-14T06:18:28;12.48;;;4.57;;
75814;SDS011;70031;45.570;14.228;2023-06-14T06:20:29;8.68;;;4.05;;
75814;SDS011;70031;45.570;14.228;2023-06-14T06:22:31;7.55;;;4.38;;
75814;SDS011;70031;45.570;14.228;2023-06-14T06:24:32;10.07;;;4.15;;
75814;SDS011;70031;45.570;14.228;2023-06-14T06:26:32;8.60;;;4.10;;
75814;SDS011;70031;45.570;14.228;2023-06-14T06:28:32;3.83;;;2.65;;
75814;SDS011;70031;45.570;14.228;2023-06-14T06:30:33;7.53;;;3.47;;
75814;SDS011;70031;45.570;14.228;2023-06-14T06:32:33;4.63;;;2.78;;
75814;SDS011;70031;45.570;14.228;2023-06-14T06:34:34;7.95;;;3.63;;
75814;SDS011;70031;45.570;14.228;2023-06-14T06:36:35;5.25;;;2.92;;
75814;SDS011;70031;45.570;14.228;2023-06-14T06:38:36;12.32;;;3.30;;
75814;SDS011;70031;45.570;14.228;2023-06-14T06:40:37;5.65;;;3.30;;
75814;SDS011;70031;45.570;14.228;2023-06-14T06:42:37;8.90;;;3.53;;
75814;SDS011;70031;45.570;14.228;2023-06-14T06:44:41;6.03;;;3.33;;
75814;SDS011;70031;45.570;14.228;2023-06-14T06:46:41;5.82;;;3.13;;
75814;SDS011;70031;45.570;14.228;2023-06-14T06:48:42;6.43;;;3.60;;
75814;SDS011;70031;45.570;14.228;2023-06-14T06:50:43;7.80;;;3.58;;
75814;SDS011;70031;45.570;14.228;2023-06-14T06:52:43;6.43;;;2.95;;
75814;SDS011;70031;45.570;14.228;2023-06-14T06:54:45;4.95;;;2.67;;
75814;SDS011;70031;45.570;14.228;2023-06-14T06:56:45;4.80;;;2.70;;
75814;SDS011;70031;45.570;14.228;2023-06-14T06:58:46;4.38;;;2.60;;
75814;SDS011;70031;45.570;14.228;2023-06-14T07:00:46;6.40;;;3.30;;
75814;SDS011;70031;45.570;14.228;2023-06-14T07:02:47;8.68;;;3.60;;
75814;SDS011;70031;45.570;14.228;2023-06-14T07:04:47;8.43;;;3.13;;
75814;SDS011;70031;45.570;14.228;2023-06-14T07:06:48;6.50;;;2.85;;
75814;SDS011;70031;45.570;14.228;2023-06-14T07:08:48;5.72;;;2.72;;
75814;SDS011;70031;45.570;14.228;2023-06-14T07:10:48;5.93;;;2.85;;
75814;SDS011;70031;45.570;14.228;2023-06-14T07:12:49;8.88;;;4.65;;
75814;SDS011;70031;45.570;14.228;2023-06-14T07:14:50;10.25;;;4.93;;
75814;SDS011;70031;45.570;14.228;2023-06-14T07:16:58;7.13;;;4.15;;
75814;SDS011;70031;45.570;14.228;2023-06-14T07:18:58;6.65;;;3.17;;
75814;SDS011;70031;45.570;14.228;2023-06-14T07:20:58;7.05;;;3.33;;
75814;SDS011;70031;45.570;14.228;2023-06-14T07:22:59;4.93;;;3.00;;
75814;SDS011;70031;45.570;14.228;2023-06-14T07:24:59;4.13;;;2.40;;
75814;SDS011;70031;45.570;14.228;2023-06-14T07:27:00;6.75;;;2.67;;
75814;SDS011;70031;45.570;14.228;2023-06-14T07:29:01;6.10;;;2.80;;
75814;SDS011;70031;45.570;14.228;2023-06-14T07:31:01;5.78;;;2.67;;
75814;SDS011;70031;45.570;14.228;2023-06-14T07:33:02;6.50;;;3.38;;
75814;SDS011;70031;45.570;14.228;2023-06-14T07:35:03;6.57;;;2.75;;
75814;SDS011;70031;45.570;14.228;2023-06-14T07:37:03;8.65;;;3.15;;
75814;SDS011;70031;45.570;14.228;2023-06-14T07:39:04;5.93;;;2.67;;
75814;SDS011;70031;45.570;14.228;2023-06-14T07:41:12;7.97;;;2.63;;
75814;SDS011;70031;45.570;14.228;2023-06-14T07:43:12;5.65;;;2.90;;
75814;SDS011;70031;45.570;14.228;2023-06-14T07:45:13;4.75;;;2.60;;
75814;SDS011;70031;45.570;14.228;2023-06-14T07:47:14;5.60;;;2.65;;
75814;SDS011;70031;45.570;14.228;2023-06-14T07:49:14;6.78;;;2.80;;
75814;SDS011;70031;45.570;14.228;2023-06-14T07:51:15;4.55;;;2.25;;
75814;SDS011;70031;45.570;14.228;2023-06-14T07:53:18;3.30;;;1.83;;
75814;SDS011;70031;45.570;14.228;2023-06-14T07:55:18;4.30;;;2.13;;
75814;SDS011;70031;45.570;14.228;2023-06-14T07:57:19;4.38;;;2.40;;
75814;SDS011;70031;45.570;14.228;2023-06-14T07:59:20;5.05;;;2.13;;
75814;SDS011;70031;45.570;14.228;2023-06-14T08:01:21;4.78;;;1.85;;
75814;SDS011;70031;45.570;14.228;2023-06-14T08:03:24;4.13;;;2.28;;
75814;SDS011;70031;45.570;14.228;2023-06-14T08:05:25;3.72;;;1.90;;
75814;SDS011;70031;45.570;14.228;2023-06-14T08:07:26;3.08;;;1.83;;
75814;SDS011;70031;45.570;14.228;2023-06-14T08:09:26;3.35;;;1.60;;
75814;SDS011;70031;45.570;14.228;2023-06-14T08:11:28;4.03;;;1.88;;
75814;SDS011;70031;45.570;14.228;2023-06-14T08:13:29;3.15;;;2.00;;
75814;SDS011;70031;45.570;14.228;2023-06-14T08:15:30;3.40;;;1.83;;
75814;SDS011;70031;45.570;14.228;2023-06-14T08:17:31;5.43;;;2.13;;
75814;SDS011;70031;45.570;14.228;2023-06-14T08:19:31;4.22;;;1.98;;
75814;SDS011;70031;45.570;14.228;2023-06-14T08:21:31;3.70;;;2.00;;
75814;SDS011;70031;45.570;14.228;2023-06-14T08:23:33;3.75;;;2.03;;
75814;SDS011;70031;45.570;14.228;2023-06-14T08:25:33;4.82;;;1.83;;
75814;SDS011;70031;45.570;14.228;2023-06-14T08:27:34;4.93;;;1.92;;
75814;SDS011;70031;45.570;14.228;2023-06-14T08:29:34;2.40;;;1.67;;
75814;SDS011;70031;45.570;14.228;2023-06-14T08:31:35;2.88;;;1.70;;
75814;SDS011;70031;45.570;14.228;2023-06-14T08:33:35;4.03;;;1.75;;
75814;SDS011;70031;45.570;14.228;2023-06-14T08:35:36;3.92;;;1.88;;
75814;SDS011;70031;45.570;14.228;2023-06-14T08:37:38;2.95;;;1.67;;
75814;SDS011;70031;45.570;14.228;2023-06-14T08:39:41;3.90;;;2.10;;
75814;SDS011;70031;45.570;14.228;2023-06-14T08:41:42;2.67;;;1.70;;
75814;SDS011;70031;45.570;14.228;2023-06-14T08:43:45;3.38;;;1.70;;
75814;SDS011;70031;45.570;14.228;2023-06-14T08:45:46;5.88;;;1.83;;
75814;SDS011;70031;45.570;14.228;2023-06-14T08:49:52;2.92;;;1.83;;
75814;SDS011;70031;45.570;14.228;2023-06-14T08:51:57;3.35;;;1.83;;
75814;SDS011;70031;45.570;14.228;2023-06-14T08:54:00;3.90;;;1.60;;
75814;SDS011;70031;45.570;14.228;2023-06-14T08:56:02;2.42;;;1.60;;
75814;SDS011;70031;45.570;14.228;2023-06-14T08:58:04;2.15;;;1.52;;
75814;SDS011;70031;45.570;14.228;2023-06-14T09:00:05;2.83;;;1.75;;
75814;SDS011;70031;45.570;14.228;2023-06-14T09:02:12;2.58;;;1.52;;
75814;SDS011;70031;45.570;14.228;2023-06-14T09:04:14;4.28;;;1.60;;
75814;SDS011;70031;45.570;14.228;2023-06-14T09:06:14;5.90;;;1.75;;
75814;SDS011;70031;45.570;14.228;2023-06-14T09:08:15;3.30;;;1.88;;
75814;SDS011;70031;45.570;14.228;2023-06-14T09:10:16;5.95;;;2.40;;
75814;SDS011;70031;45.570;14.228;2023-06-14T09:12:17;4.00;;;1.90;;
75814;SDS011;70031;45.570;14.228;2023-06-14T09:14:18;4.38;;;1.92;;
75814;SDS011;70031;45.570;14.228;2023-06-14T09:16:19;3.58;;;1.75;;
75814;SDS011;70031;45.570;14.228;2023-06-14T09:18:20;3.97;;;1.80;;
75814;SDS011;70031;45.570;14.228;2023-06-14T09:20:21;2.47;;;1.35;;
75814;SDS011;70031;45.570;14.228;2023-06-14T09:22:24;4.28;;;1.60;;
75814;SDS011;70031;45.570;14.228;2023-06-14T09:24:25;2.50;;;1.60;;
75814;SDS011;70031;45.570;14.228;2023-06-14T09:26:26;2.92;;;1.67;;
75814;SDS011;70031;45.570;14.228;2023-06-14T09:28:27;2.53;;;1.30;;
75814;SDS011;70031;45.570;14.228;2023-06-14T09:30:28;3.83;;;1.80;;
75814;SDS011;70031;45.570;14.228;2023-06-14T09:32:28;2.95;;;1.63;;
75814;SDS011;70031;45.570;14.228;2023-06-14T09:34:29;2.50;;;1.52;;
75814;SDS011;70031;45.570;14.228;2023-06-14T09:36:31;2.65;;;1.55;;
75814;SDS011;70031;45.570;14.228;2023-06-14T09:40:34;2.65;;;1.40;;
75814;SDS011;70031;45.570;14.228;2023-06-14T09:42:37;3.00;;;1.45;;
75814;SDS011;70031;45.570;14.228;2023-06-14T09:44:38;2.30;;;1.38;;
75814;SDS011;70031;45.570;14.228;2023-06-14T09:46:38;2.67;;;1.48;;
75814;SDS011;70031;45.570;14.228;2023-06-14T09:48:39;2.88;;;1.50;;
75814;SDS011;70031;45.570;14.228;2023-06-14T09:50:42;2.70;;;1.30;;
75814;SDS011;70031;45.570;14.228;2023-06-14T09:52:46;4.53;;;1.38;;
75814;SDS011;70031;45.570;14.228;2023-06-14T09:54:52;5.07;;;1.90;;
75814;SDS011;70031;45.570;14.228;2023-06-14T09:56:53;2.95;;;1.42;;
75814;SDS011;70031;45.570;14.228;2023-06-14T09:58:55;2.58;;;1.60;;
75814;SDS011;70031;45.570;14.228;2023-06-14T10:00:57;4.95;;;1.85;;
75814;SDS011;70031;45.570;14.228;2023-06-14T10:03:00;3.35;;;1.60;;
75814;SDS011;70031;45.570;14.228;2023-06-14T10:05:06;6.47;;;1.58;;
75814;SDS011;70031;45.570;14.228;2023-06-14T10:07:09;3.92;;;1.88;;
75814;SDS011;70031;45.570;14.228;2023-06-14T10:09:10;5.50;;;1.73;;
75814;SDS011;70031;45.570;14.228;2023-06-14T10:11:12;2.38;;;1.42;;
75814;SDS011;70031;45.570;14.228;2023-06-14T10:13:13;3.42;;;1.55;;
75814;SDS011;70031;45.570;14.228;2023-06-14T10:15:22;3.25;;;1.98;;
75814;SDS011;70031;45.570;14.228;2023-06-14T10:17:33;3.28;;;1.58;;
75814;SDS011;70031;45.570;14.228;2023-06-14T10:19:48;3.38;;;1.48;;
75814;SDS011;70031;45.570;14.228;2023-06-14T10:21:58;8.95;;;1.92;;
75814;SDS011;70031;45.570;14.228;2023-06-14T10:24:05;2.20;;;1.52;;
75814;SDS011;70031;45.570;14.228;2023-06-14T10:26:08;2.42;;;1.33;;
75814;SDS011;70031;45.570;14.228;2023-06-14T10:28:17;3.75;;;1.98;;
75814;SDS011;70031;45.570;14.228;2023-06-14T10:30:23;3.95;;;1.70;;
75814;SDS011;70031;45.570;14.228;2023-06-14T10:32:25;2.58;;;1.60;;
75814;SDS011;70031;45.570;14.228;2023-06-14T10:36:31;2.70;;;1.40;;
75814;SDS011;70031;45.570;14.228;2023-06-14T10:38:35;2.55;;;1.60;;
75814;SDS011;70031;45.570;14.228;2023-06-14T10:40:37;6.75;;;2.88;;
75814;SDS011;70031;45.570;14.228;2023-06-14T10:42:39;3.47;;;1.65;;
75814;SDS011;70031;45.570;14.228;2023-06-14T10:44:52;5.22;;;1.92;;
75814;SDS011;70031;45.570;14.228;2023-06-14T10:46:58;4.70;;;1.77;;
75814;SDS011;70031;45.570;14.228;2023-06-14T10:49:02;3.63;;;1.70;;
75814;SDS011;70031;45.570;14.228;2023-06-14T10:51:06;3.28;;;1.67;;
75814;SDS011;70031;45.570;14.228;2023-06-14T10:53:23;3.63;;;1.58;;
75814;SDS011;70031;45.570;14.228;2023-06-14T10:55:24;2.58;;;1.60;;
75814;SDS011;70031;45.570;14.228;2023-06-14T10:57:24;3.28;;;1.90;;
75814;SDS011;70031;45.570;14.228;2023-06-14T10:59:25;5.22;;;1.45;;
75814;SDS011;70031;45.570;14.228;2023-06-14T11:01:38;3.42;;;1.92;;
75814;SDS011;70031;45.570;14.228;2023-06-14T11:03:51;2.47;;;1.65;;
75814;SDS011;70031;45.570;14.228;2023-06-14T11:05:56;2.90;;;1.63;;
75814;SDS011;70031;45.570;14.228;2023-06-14T11:08:02;2.58;;;1.73;;
75814;SDS011;70031;45.570;14.228;2023-06-14T11:12:38;3.37;;;1.83;;
75814;SDS011;70031;45.570;14.228;2023-06-14T11:14:40;3.38;;;1.92;;
75814;SDS011;70031;45.570;14.228;2023-06-14T11:16:40;5.82;;;1.60;;
75814;SDS011;70031;45.570;14.228;2023-06-14T11:18:41;4.07;;;1.70;;
75814;SDS011;70031;45.570;14.228;2023-06-14T11:20:42;2.00;;;1.38;;
75814;SDS011;70031;45.570;14.228;2023-06-14T11:22:42;3.45;;;1.70;;
75814;SDS011;70031;45.570;14.228;2023-06-14T11:24:43;2.33;;;1.45;;
75814;SDS011;70031;45.570;14.228;2023-06-14T11:26:44;3.53;;;1.83;;
75814;SDS011;70031;45.570;14.228;2023-06-14T11:28:45;2.92;;;1.60;;
75814;SDS011;70031;45.570;14.228;2023-06-14T11:30:45;3.92;;;1.95;;
75814;SDS011;70031;45.570;14.228;2023-06-14T11:32:50;5.68;;;1.98;;
75814;SDS011;70031;45.570;14.228;2023-06-14T11:34:51;2.97;;;1.85;;
75814;SDS011;70031;45.570;14.228;2023-06-14T11:36:52;4.18;;;1.90;;
75814;SDS011;70031;45.570;14.228;2023-06-14T11:38:59;2.40;;;1.67;;
75814;SDS011;70031;45.570;14.228;2023-06-14T11:41:01;3.67;;;1.80;;
75814;SDS011;70031;45.570;14.228;2023-06-14T11:43:01;4.50;;;1.60;;
75814;SDS011;70031;45.570;14.228;2023-06-14T11:45:03;3.03;;;1.70;;
75814;SDS011;70031;45.570;14.228;2023-06-14T11:47:05;2.53;;;1.70;;
75814;SDS011;70031;45.570;14.228;2023-06-14T11:49:06;3.42;;;1.90;;
75814;SDS011;70031;45.570;14.228;2023-06-14T11:51:07;3.57;;;1.67;;
75814;SDS011;70031;45.570;14.228;2023-06-14T11:53:07;5.65;;;1.80;;
75814;SDS011;70031;45.570;14.228;2023-06-14T11:55:10;2.90;;;1.70;;
75814;SDS011;70031;45.570;14.228;2023-06-14T11:57:10;2.55;;;1.65;;
75814;SDS011;70031;45.570;14.228;2023-06-14T11:59:12;3.55;;;1.85;;
75814;SDS011;70031;45.570;14.228;2023-06-14T12:01:16;2.40;;;1.65;;
75814;SDS011;70031;45.570;14.228;2023-06-14T12:03:17;3.70;;;1.80;;
75814;SDS011;70031;45.570;14.228;2023-06-14T12:05:24;2.92;;;2.00;;
75814;SDS011;70031;45.570;14.228;2023-06-14T12:07:26;2.88;;;1.52;;
75814;SDS011;70031;45.570;14.228;2023-06-14T12:09:28;2.75;;;1.70;;